Nearby METAR Reports
LFBA - Agen,(47)Lot-et-Garonne
Mise à jour: Mon, 22-Apr-2019 09:30 CEST
Clear
Clear
 Wind from E
Vent: E 7 km/h
Température: 12°C
Point de Rosée: 9°C
Humidité: 82%
Barometre: 1004 hPa
Visibilité: greater than 10 km
2019/04/22 07:30 LFBA 220730Z AUTO 09004KT CAVOK 12/09 Q1004 NOSIG
LFKJ - Ajaccio,(2A)Corse-du-Sud
Mise à jour: Mon, 22-Apr-2019 09:30 CEST
Few Clouds
Few Clouds
 Wind from E
Vent: E 6 km/h
Température: 16°C
Point de Rosée: 10°C
Humidité: 68%
Barometre: 1001 hPa
Nuage: Few Clouds
Visibilité: 10 km
2019/04/22 07:30 LFKJ 220730Z AUTO 10003KT 090V160 9999 FEW060 16/10 Q1001 NOSIG
LFLP - Annecy,(74)Haute-Savoie
Mise à jour: Mon, 22-Apr-2019 09:30 CEST
Clear
Clear
 Wind from NW
Vent: NW 9 km/h
Température: 17°C
Point de Rosée: 6°C
Humidité: 49%
Barometre: 1006 hPa
Visibilité: greater than 10 km
2019/04/22 07:30 LFLP 220730Z AUTO 32005KT CAVOK 17/06 Q1006 NOSIG
 
LFLW - Aurillac,(15)Cantal
Mise à jour: Mon, 22-Apr-2019 09:30 CEST
Clear
Clear
 Wind from NW
Vent: NW 7 km/h
Température: 11°C
Point de Rosée: 7°C
Humidité: 77%
Barometre: 1006 hPa
Visibilité: greater than 10 km
2019/04/22 07:30 LFLW 220730Z AUTO 31004KT CAVOK 11/07 Q1006 TEMPO 10015G25KT SHRA BKN040TCU OVC060
LFOA - Avord,(18)Cher
Mise à jour: Mon, 22-Apr-2019 09:30 CEST
Clear
Clear
 Wind from varies
Vent: varies 6 km/h
Température: 12°C
Point de Rosée: 10°C
Humidité: 88%
Barometre: 1007 hPa
Visibilité: greater than 10 km
2019/04/22 07:30 LFOA 220730Z AUTO VRB03KT CAVOK 12/10 Q1007
LFSB - Bale(CH)-Mulhouse,(68)Haut-Rhin
Mise à jour: Mon, 22-Apr-2019 09:30 CEST
Clear
Clear
 Wind from varies
Vent: varies 6 km/h
Température: 13°C
Point de Rosée: 6°C
Humidité: 63%
Barometre: 1009 hPa
Visibilité: greater than 10 km
2019/04/22 07:30 LFSB 220730Z VRB03KT CAVOK 13/06 Q1009 NOSIG
 
LFKB - Bastia,(2B)Haute-Corse
Mise à jour: Mon, 22-Apr-2019 09:30 CEST
Clear
Clear
 Wind from SSE
Vent: SSE 11 km/h
Température: 19°C
Point de Rosée: 6°C
Humidité: 43%
Barometre: 1007 hPa
Visibilité: greater than 10 km
2019/04/22 07:30 LFKB 220730Z AUTO 16006KT 120V190 CAVOK 19/06 Q1007 TEMPO 13015G25KT
LFOB - Beauvais,(60)Oise
Mise à jour: Mon, 22-Apr-2019 09:30 CEST
Clear
Clear
 Wind from calm
Vent: Calm
Température: 14°C
Point de Rosée: 10°C
Humidité: 77%
Barometre: 1007 hPa
Visibilité: greater than 10 km
2019/04/22 07:30 LFOB 220730Z AUTO 00000KT CAVOK 14/10 Q1007 NOSIG
LFBE - Bergerac,(24)Dordogne
Mise à jour: Mon, 22-Apr-2019 09:30 CEST
Clear
Clear
 Wind from varies
Vent: varies 2 km/h
Température: 12°C
Point de Rosée: 9°C
Humidité: 82%
Barometre: 1005 hPa
Visibilité: greater than 10 km
2019/04/22 07:30 LFBE 220730Z AUTO VRB01KT CAVOK 12/09 Q1005 NOSIG
 
LFMU - Beziers, Vias,(34)Hérault
Mise à jour: Mon, 22-Apr-2019 09:30 CEST
Clear
Clear
 Wind from WNW
Vent: WNW 6 km/h
Température: 17°C
Point de Rosée: 8°C
Humidité: 56%
Barometre: 1005 hPa
Visibilité: greater than 10 km
2019/04/22 07:30 LFMU 220730Z AUTO 30003KT CAVOK 17/08 Q1005 TEMPO SHRA FEW040TCU
LFBZ - Biarritz,(64)Pyrénées-Atlantiques
Mise à jour: Mon, 22-Apr-2019 09:30 CEST
Clear
Clear
 Wind from calm
Vent: Calm
Température: 12°C
Point de Rosée: 11°C
Humidité: 94%
Barometre: 1004 hPa
Visibilité: greater than 10 km
2019/04/22 07:30 LFBZ 220730Z AUTO 00000KT CAVOK 12/11 Q1004 BECMG 34010KT
LFBD - Bordeaux , Merignac,(33)Gironde
Mise à jour: Mon, 22-Apr-2019 09:30 CEST
Clear
Clear
 Wind from E
Vent: E 11 km/h
Température: 14°C
Point de Rosée: 9°C
Humidité: 72%
Barometre: 1005 hPa
Visibilité: greater than 10 km
2019/04/22 07:30 LFBD 220730Z AUTO 08006KT CAVOK 14/09 Q1005 BECMG 12015G25KT
 
LFAQ - Bray,(80)Somme
Mise à jour: Mon, 22-Apr-2019 09:30 CEST
Clear
Clear
 Wind from SSE
Vent: SSE 15 km/h
Température: 15°C
Point de Rosée: 7°C
Humidité: 59%
Barometre: 1008 hPa
Visibilité: greater than 10 km
2019/04/22 07:30 LFAQ 220730Z AUTO 15008KT CAVOK 15/07 Q1008 NOSIG
LFRB - Brest,(29)Finistère
Mise à jour: Mon, 22-Apr-2019 09:30 CEST
Clear
Clear
 Wind from S
Vent: S 15 km/h
Température: 12°C
Point de Rosée: 9°C
Humidité: 82%
Barometre: 1005 hPa
Visibilité: greater than 10 km
2019/04/22 07:30 LFRB 220730Z AUTO 18008KT CAVOK 12/09 Q1005 NOSIG
LFBU - Brie,Champniers,(16)Charente
Mise à jour: Mon, 22-Apr-2019 09:30 CEST
Clear
Clear
 Wind from NE
Vent: NE 9 km/h
Température: 13°C
Point de Rosée: 9°C
Humidité: 77%
Barometre: 1006 hPa
Visibilité: greater than 10 km
2019/04/22 07:30 LFBU 220730Z AUTO 04005KT CAVOK 13/09 Q1006 BECMG 13010KT
 
LFSL - Brive (19), Souillac(46),Corrèze Lot
Mise à jour: Mon, 22-Apr-2019 09:30 CEST
Clear
Clear
 Wind from calm
Vent: Calm
Température: 12°C
Point de Rosée: 8°C
Humidité: 77%
Barometre: 1005 hPa
Nuage: Clear
Visibilité: 10 km
2019/04/22 07:30 LFSL 220730Z AUTO 00000KT 9999 NCD 12/08 Q1005 NOSIG
LFRK - Caen,(14)Calvados
Mise à jour: Mon, 22-Apr-2019 09:30 CEST
Partly Cloudy
Partly Cloudy
 Wind from SE
Vent: SE 7 km/h
Température: 13°C
Point de Rosée: 10°C
Humidité: 82%
Barometre: 1006 hPa
Nuage: Partly Cloudy
Visibilité: 7 km
2019/04/22 07:30 LFRK 220730Z AUTO 13004KT 7000 NSC 13/10 Q1006 NOSIG
LFKC - Calvi,(2B)Haute-Corse
Mise à jour: Mon, 22-Apr-2019 09:30 CEST
Few Clouds
Few Clouds
 Wind from varies
Vent: varies 4 km/h
Température: 19°C
Point de Rosée: 7°C
Humidité: 46%
Barometre: 1001 hPa
Nuage: Few Clouds
Visibilité: 10 km
2019/04/22 07:30 LFKC 220730Z AUTO VRB02KT 9999 FEW058 19/07 Q1001 NOSIG
 
LFMD - Cannes,(06)Alpes-Maritimes
Mise à jour: Mon, 22-Apr-2019 09:30 CEST
Clear
Clear
 Wind from ENE
Vent: ENE 7 km/h
Température: 21°C
Point de Rosée: 6°C
Humidité: 38%
Barometre: 1004 hPa
Visibilité: greater than 10 km
2019/04/22 07:30 LFMD 220730Z AUTO 07004KT 350V150 CAVOK 21/06 Q1004 BECMG 09015G25KT
LFMK - Carcassonne,(11)Aude
Mise à jour: Mon, 22-Apr-2019 09:30 CEST
Clear
Clear
 Wind from ENE
Vent: ENE 7 km/h
Température: 14°C
Point de Rosée: 9°C
Humidité: 72%
Barometre: 1004 hPa
Visibilité: greater than 10 km
2019/04/22 07:30 LFMK 220730Z AUTO 06004KT CAVOK 14/09 Q1004 TEMPO 4000 SHRA SCT040TCU
LFCK - Castre-Mazamet,(81)Tarn
Mise à jour: Mon, 22-Apr-2019 09:30 CEST
Clear
Clear
 Wind from varies
Vent: varies 4 km/h
Température: 10°C
Point de Rosée: 7°C
Humidité: 82%
Barometre: 1006 hPa
Visibilité: greater than 10 km
2019/04/22 07:30 LFCK 220730Z AUTO VRB02KT CAVOK 10/07 Q1006 BECMG 11012KT
 
LFMV - Avignon/Caumont,(84) Vaucluse
Mise à jour: Mon, 22-Apr-2019 09:30 CEST
Clear
Clear
 Wind from varies
Vent: varies 4 km/h
Température: 15°C
Point de Rosée: 8°C
Humidité: 63%
Barometre: 1004 hPa
Visibilité: greater than 10 km
2019/04/22 07:30 LFMV 220730Z AUTO VRB02KT CAVOK 15/08 Q1004 NOSIG
LFBC - Cazaux, (33)Gironde
Mise à jour: Mon, 22-Apr-2019 09:30 CEST
Clear
Clear
 Wind from E
Vent: E 7 km/h
Température: 12°C
Point de Rosée: 9°C
Humidité: 82%
Barometre: 1004 hPa
Visibilité: greater than 10 km
2019/04/22 07:30 LFBC 220730Z AUTO 10004KT CAVOK 12/09 Q1004
LFOK - Chalon,Vatry,(51)Marne
Mise à jour: Mon, 22-Apr-2019 09:30 CEST
Clear
Clear
 Wind from varies
Vent: varies 4 km/h
Température: 14°C
Point de Rosée: 9°C
Humidité: 72%
Barometre: 1008 hPa
Visibilité: greater than 10 km
2019/04/22 07:30 LFOK 220730Z AUTO VRB02KT CAVOK 14/09 Q1008 NOSIG
 
LFLB - Chambery,Aix Bai,(73)Savoie
Mise à jour: Mon, 22-Apr-2019 09:30 CEST
Clear
Clear
 Wind from varies
Vent: varies 6 km/h
Température: 13°C
Point de Rosée: 8°C
Humidité: 72%
Barometre: 1006 hPa
Visibilité: greater than 10 km
2019/04/22 07:30 LFLB 220730Z AUTO VRB03KT CAVOK 13/08 Q1006 NOSIG
LFOC - Chateaudun,(28)Eure-et-Loir
Mise à jour: Mon, 22-Apr-2019 09:30 CEST
Clear
Clear
 Wind from calm
Vent: Calm
Température: 14°C
Point de Rosée: 11°C
Humidité: 82%
Barometre: 1007 hPa
Visibilité: greater than 10 km
2019/04/22 07:30 LFOC 220730Z AUTO 00000KT CAVOK 14/11 Q1007
LFLX - Chateauroux,(36)Indre
Mise à jour: Mon, 22-Apr-2019 09:30 CEST
Clear
Clear
 Wind from ESE
Vent: ESE 7 km/h
Température: 14°C
Point de Rosée: 9°C
Humidité: 72%
Barometre: 1007 hPa
Visibilité: greater than 10 km
2019/04/22 07:30 LFLX 220730Z AUTO 11004KT CAVOK 14/09 Q1007 NOSIG
 
LFRC - Cherbourg , Maupertus,(50)Manche
Mise à jour: Mon, 22-Apr-2019 09:30 CEST
Clear
Clear
 Wind from S
Vent: S 11 km/h
Température: 17°C
Point de Rosée: 9°C
Humidité: 59%
Barometre: 1006 hPa
Visibilité: greater than 10 km
2019/04/22 07:30 LFRC 220730Z AUTO 18006KT CAVOK 17/09 Q1006 NOSIG
LFLC - Clermont-Ferrand,(63)Puy-de-Dôme
Mise à jour: Mon, 22-Apr-2019 09:30 CEST
Clear
Clear
 Wind from varies
Vent: varies 6 km/h
Température: 12°C
Point de Rosée: 8°C
Humidité: 77%
Barometre: 1007 hPa
Visibilité: greater than 10 km
2019/04/22 07:30 LFLC 220730Z AUTO VRB03KT CAVOK 12/08 Q1007 NOSIG
LFBG - Cognac,(16)Charente
Mise à jour: Mon, 22-Apr-2019 09:30 CEST
Clear
Clear
 Wind from ENE
Vent: ENE 7 km/h
Température: 13°C
Point de Rosée: 10°C
Humidité: 82%
Barometre: 1005 hPa
Visibilité: greater than 10 km
2019/04/22 07:30 LFBG 220730Z AUTO 06004KT CAVOK 13/10 Q1005
 
LFGA - Colmar,(68)Haut-Rhin
Mise à jour: Mon, 22-Apr-2019 09:30 CEST
Clear
Clear
 Wind from NE
Vent: NE 6 km/h
Température: 13°C
Point de Rosée: 4°C
Humidité: 55%
Barometre: 1009 hPa
Visibilité: greater than 10 km
2019/04/22 07:30 LFGA 220730Z AUTO 05003KT 010V090 CAVOK 13/04 Q1009
LFPT - Cormeilles Vexin,(95)Val-d Oise
Mise à jour: Mon, 22-Apr-2019 09:30 CEST
Clear
Clear
 Wind from varies
Vent: varies 4 km/h
Température: 15°C
Point de Rosée: 7°C
Humidité: 59%
Barometre: 1007 hPa
Visibilité: greater than 10 km
2019/04/22 07:30 LFPT 220730Z AUTO VRB02KT CAVOK 15/07 Q1007
LFPC - Creil Fafb,(60)Oise
Mise à jour: Thu, 01-Sep-2016 05:00 CEST
Pas Actualisé
Clear
Clear
 Wind from WNW
Vent: WNW 7 km/h
Température: 24°C
Point de Rosée: 13°C
Humidité: 50%
Barometre: 1023 hPa
Visibilité: greater than 10 km
2016/09/01 15:00 LFPC 011500Z AUTO 30004KT 240V350 CAVOK 24/13 Q1023
 
LFBY - Dax,(40)Landes
Mise à jour: Mon, 22-Apr-2019 09:30 CEST

 Wind from varies
Vent: varies 6 km/h
Température: 11°C
Point de Rosée: 9°C
Humidité: 88%
Barometre: 1004 hPa
Visibilité: 7 km
2019/04/22 07:30 LFBY 220730Z AUTO VRB03KT 7000 // ////// 11/09 Q1004
LFRG - Deauville/Saint-Gatien,(14)Calvados
Mise à jour: Mon, 22-Apr-2019 09:30 CEST
Clear
Clear
 Wind from SSE
Vent: SSE 11 km/h
Température: 17°C
Point de Rosée: 7°C
Humidité: 52%
Barometre: 1007 hPa
Visibilité: greater than 10 km
2019/04/22 07:30 LFRG 220730Z AUTO 16006KT 110V190 CAVOK 17/07 Q1007 NOSIG
LFSD - Dijon,(31)Côte-d Or
Mise à jour: Mon, 22-Apr-2019 09:30 CEST
Clear
Clear
 Wind from N
Vent: N 9 km/h
Température: 14°C
Point de Rosée: 10°C
Humidité: 77%
Barometre: 1007 hPa
Visibilité: greater than 10 km
2019/04/22 07:30 LFSD 220730Z AUTO 36005KT CAVOK 14/10 Q1007
 
LFRD - Dinard,(35)Ille-et-Vilaine
Mise à jour: Mon, 22-Apr-2019 09:30 CEST
Clear
Clear
 Wind from S
Vent: S 11 km/h
Température: 14°C
Point de Rosée: 10°C
Humidité: 77%
Barometre: 1006 hPa
Visibilité: greater than 10 km
2019/04/22 07:30 LFRD 220730Z AUTO 19006KT CAVOK 14/10 Q1006 NOSIG
LFGJ - Dole-Tavaux,(39) Jura
Mise à jour: Mon, 22-Apr-2019 09:30 CEST
Clear
Clear
 Wind from N
Vent: N 7 km/h
Température: 15°C
Point de Rosée: 9°C
Humidité: 68%
Barometre: 1007 hPa
Visibilité: greater than 10 km
2019/04/22 07:30 LFGJ 220730Z AUTO 35004KT 300V010 CAVOK 15/09 Q1007 NOSIG
FMCZ - Dzaoudzi-Pamandzi,(976)Mayotte
Mise à jour: Mon, 22-Apr-2019 09:30 CEST
Mostly Cloudy
Mostly Cloudy
 Wind from S
Vent: S 28 km/h
Température: 31°C
Humidex: 39°C
Point de Rosée: 26°C
Humidité: 75%
Barometre: 1010 hPa
Nuage: Mostly Cloudy
Visibilité: 10 km
2019/04/22 07:30 FMCZ 220730Z AUTO 17015KT 9999 BKN021 BKN032 31/26 Q1010 NOSIG
 
LFOE - Evreux,(27)Eure
Mise à jour: Mon, 22-Apr-2019 09:30 CEST
Clear
Clear
 Wind from SSW
Vent: SSW 9 km/h
Température: 14°C
Point de Rosée: 10°C
Humidité: 77%
Barometre: 1007 hPa
Visibilité: greater than 10 km
2019/04/22 07:30 LFOE 220730Z AUTO 20005KT CAVOK 14/10 Q1007 NOSIG
LFSG - EPINAL Mirecourt,(88)Vosges
Mise à jour: Mon, 22-Apr-2019 09:30 CEST
Clear
Clear
 Wind from NNE
Vent: NNE 9 km/h
Température: 12°C
Point de Rosée: 6°C
Humidité: 67%
Barometre: 1008 hPa
Visibilité: greater than 10 km
2019/04/22 07:30 LFSG 220730Z AUTO 02005KT CAVOK 12/06 Q1008
LFKF - Figari,(2A)Corse-du-Sud
Mise à jour: Mon, 22-Apr-2019 09:30 CEST
Few Clouds
Few Clouds
 Wind from ENE
Vent: ENE 50 km/h, Gust: 80 km/h
Température: 18°C
Point de Rosée: 8°C
Humidité: 52%
Barometre: 1003 hPa
Nuage: Few Clouds
Visibilité: 9 km
2019/04/22 07:30 LFKF 220730Z AUTO 06027G43KT 030V090 9000 FEW030 18/08 Q1003 NOSIG
 
LFLS - Grenoble , St. Geoirs,(38)Isère
Mise à jour: Mon, 22-Apr-2019 09:30 CEST
Clear
Clear
 Wind from WSW
Vent: WSW 6 km/h
Température: 12°C
Point de Rosée: 8°C
Humidité: 77%
Barometre: 1006 hPa
Visibilité: greater than 10 km
2019/04/22 07:30 LFLS 220730Z AUTO 25003KT CAVOK 12/08 Q1006 NOSIG
LFTH - Hyeres,(83)Var
Mise à jour: Mon, 22-Apr-2019 09:30 CEST
Clear
Clear
 Wind from E
Vent: E 41 km/h, Gust: 63 km/h
Température: 20°C
Point de Rosée: 5°C
Humidité: 38%
Barometre: 1002 hPa
Visibilité: greater than 10 km
2019/04/22 07:30 LFTH 220730Z AUTO 08022G34KT CAVOK 20/05 Q1002 NOSIG
LFMI - Istres,(13)Bouches-du-Rhône
Mise à jour: Mon, 22-Apr-2019 09:30 CEST
Clear
Clear
 Wind from N
Vent: N 15 km/h
Température: 18°C
Point de Rosée: 8°C
Humidité: 52%
Barometre: 1003 hPa
Visibilité: greater than 10 km
2019/04/22 07:30 LFMI 220730Z AUTO 01008KT CAVOK 18/08 Q1003 NOSIG
 
LFOH - La Heve,(76)Seine-Maritime
Mise à jour: Mon, 22-Apr-2019 09:30 CEST
Clear
Clear
 Wind from ESE
Vent: ESE 9 km/h
Température: 16°C
Point de Rosée: 6°C
Humidité: 52%
Barometre: 1006 hPa
Visibilité: greater than 10 km
2019/04/22 07:30 LFOH 220730Z AUTO 12005KT 100V160 CAVOK 16/06 Q1006 NOSIG
LFRI - La Roche-Sur-Yon,(85)Vendée
Mise à jour: Mon, 22-Apr-2019 09:30 CEST
Clear
Clear
 Wind from ENE
Vent: ENE 7 km/h
Température: 14°C
Point de Rosée: 10°C
Humidité: 77%
Barometre: 1006 hPa
Visibilité: greater than 10 km
2019/04/22 07:30 LFRI 220730Z AUTO 07004KT CAVOK 14/10 Q1006 BECMG 13010KT
LFBH - La Rochelle,(17)Charente-Maritime
Mise à jour: Mon, 22-Apr-2019 09:30 CEST
Clear
Clear
 Wind from E
Vent: E 19 km/h
Température: 15°C
Point de Rosée: 10°C
Humidité: 72%
Barometre: 1005 hPa
Visibilité: greater than 10 km
2019/04/22 07:30 LFBH 220730Z AUTO 08010KT CAVOK 15/10 Q1005 NOSIG
 
LFOV - Laval,Entrammes,(53)Mayenne
Mise à jour: Mon, 22-Apr-2019 09:30 CEST
Clear
Clear
 Wind from varies
Vent: varies 2 km/h
Température: 14°C
Point de Rosée: 10°C
Humidité: 77%
Barometre: 1007 hPa
Visibilité: greater than 10 km
2019/04/22 07:30 LFOV 220730Z AUTO VRB01KT CAVOK 14/10 Q1007
LFRJ - Landivisiau,(29)Finistère
Mise à jour: Mon, 22-Apr-2019 09:30 CEST
Clear
Clear
 Wind from S
Vent: S 13 km/h
Température: 13°C
Point de Rosée: 10°C
Humidité: 82%
Barometre: 1005 hPa
Visibilité: greater than 10 km
2019/04/22 07:30 LFRJ 220730Z AUTO 18007KT CAVOK 13/10 Q1005
LFRO - Lannion,Servel,(22)Côtes-d Armor
Mise à jour: Mon, 22-Apr-2019 09:30 CEST
Clear
Clear
 Wind from SE
Vent: SE 9 km/h
Température: 13°C
Point de Rosée: 10°C
Humidité: 82%
Barometre: 1005 hPa
Visibilité: greater than 10 km
2019/04/22 07:30 LFRO 220730Z AUTO 14005KT CAVOK 13/10 Q1005
 
LFRL - Lanveoc Poulmic,(29)Finistère
Mise à jour: Mon, 22-Apr-2019 09:30 CEST
Partly Cloudy
Partly Cloudy
 Wind from SSE
Vent: SSE 11 km/h
Température: 12°C
Point de Rosée: 10°C
Humidité: 88%
Barometre: 1005 hPa
Nuage: Partly Cloudy
Visibilité: 7 km
2019/04/22 07:30 LFRL 220730Z AUTO 15006KT 7000 NSC 12/10 Q1005
TFFF - Le Lamentin,(972)Martinique
Mise à jour: Mon, 22-Apr-2019 09:30 CEST
Mostly Cloudy
Mostly Cloudy
 Wind from ENE
Vent: ENE 6 km/h
Température: 23°C
Point de Rosée: 19°C
Humidité: 78%
Barometre: 1013 hPa
Nuage: Mostly Cloudy
Visibilité: 10 km
2019/04/22 07:30 TFFF 220730Z AUTO 07003KT 050V110 9999 BKN028 BKN034 23/19 Q1013 NOSIG
LFMC - Le Luc,(83)Var
Mise à jour: Mon, 22-Apr-2019 09:30 CEST

 Wind from E
Vent: E 22 km/h
Température: 21°C
Point de Rosée: 4°C
Humidité: 33%
Barometre: 1003 hPa
Visibilité: 10 km
2019/04/22 07:30 LFMC 220730Z AUTO 10012KT 070V130 9999 ////// 21/04 Q1003
 
LFRM - Le Mans,(72)Sarthe
Mise à jour: Mon, 22-Apr-2019 09:30 CEST
Clear
Clear
 Wind from calm
Vent: Calm
Température: 16°C
Point de Rosée: 10°C
Humidité: 68%
Barometre: 1007 hPa
Visibilité: greater than 10 km
2019/04/22 07:30 LFRM 220730Z AUTO 00000KT CAVOK 16/10 Q1007 NOSIG
LFAT - Le Touquet,(62)Pas-de-Calais
Mise à jour: Mon, 22-Apr-2019 09:30 CEST
Partly Cloudy
Partly Cloudy
 Wind from SE
Vent: SE 9 km/h
Température: 15°C
Point de Rosée: 9°C
Humidité: 68%
Barometre: 1007 hPa
Nuage: Partly Cloudy
Visibilité: 6 km
2019/04/22 07:30 LFAT 220730Z AUTO 14005KT 6000 NSC 15/09 Q1007 NOSIG
LFQQ - Lille,(59)Nord
Mise à jour: Mon, 22-Apr-2019 09:30 CEST
Clear
Clear
 Wind from E
Vent: E 7 km/h
Température: 17°C
Point de Rosée: 6°C
Humidité: 49%
Barometre: 1008 hPa
Visibilité: greater than 10 km
2019/04/22 07:30 LFQQ 220730Z AUTO 08004KT CAVOK 17/06 Q1008 NOSIG
 
LFRH - Lorient/Lann Bih,(56)Morbihan
Mise à jour: Mon, 22-Apr-2019 09:30 CEST
Partly Cloudy
Partly Cloudy
 Wind from ENE
Vent: ENE 6 km/h
Température: 13°C
Point de Rosée: 13°C
Humidité: 100%
Barometre: 1005 hPa
Nuage: Partly Cloudy
Visibilité: 8 km
2019/04/22 07:30 LFRH 220730Z AUTO 07003KT 040V110 8000 NSC 13/13 Q1005 NOSIG
LFBL - Limoges,(87)Haute-Vienne
Mise à jour: Mon, 22-Apr-2019 09:30 CEST
Clear
Clear
 Wind from ENE
Vent: ENE 17 km/h
Température: 13°C
Point de Rosée: 6°C
Humidité: 63%
Barometre: 1006 hPa
Visibilité: greater than 10 km
2019/04/22 07:30 LFBL 220730Z AUTO 07009KT CAVOK 13/06 Q1006 NOSIG
LFSX - Luxeuil-les-Bains,(70)Haute-Saône
Mise à jour: Mon, 22-Apr-2019 09:30 CEST
Clear
Clear
 Wind from calm
Vent: Calm
Température: 14°C
Point de Rosée: 5°C
Humidité: 55%
Barometre: 1008 hPa
Visibilité: greater than 10 km
2019/04/22 07:30 LFSX 220730Z AUTO 00000KT CAVOK 14/05 Q1008
 
LFLY - Lyon,Bron,(69) Rhône
Mise à jour: Mon, 22-Apr-2019 09:30 CEST
Clear
Clear
 Wind from NNW
Vent: NNW 9 km/h
Température: 15°C
Point de Rosée: 8°C
Humidité: 63%
Barometre: 1006 hPa
Visibilité: greater than 10 km
2019/04/22 07:30 LFLY 220730Z AUTO 34005KT 300V010 CAVOK 15/08 Q1006 NOSIG
LFLL - Lyon,Satolas,(69) Rhône
Mise à jour: Mon, 22-Apr-2019 09:30 CEST
Clear
Clear
 Wind from W
Vent: W 6 km/h
Température: 13°C
Point de Rosée: 9°C
Humidité: 77%
Barometre: 1006 hPa
Visibilité: greater than 10 km
2019/04/22 07:30 LFLL 220730Z 28003KT 170V330 CAVOK 13/09 Q1006 NOSIG
LFJR - Marcé,(49) Maine-et-Loire
Mise à jour: Mon, 22-Apr-2019 09:30 CEST
Clear
Clear
 Wind from ESE
Vent: ESE 6 km/h
Température: 16°C
Point de Rosée: 10°C
Humidité: 68%
Barometre: 1007 hPa
Visibilité: greater than 10 km
2019/04/22 07:30 LFJR 220730Z AUTO 12003KT 080V150 CAVOK 16/10 Q1007 NOSIG
 
LFML - Marseille, Marignane,(13)Bouches-du-Rhône
Mise à jour: Mon, 22-Apr-2019 09:30 CEST
Clear
Clear
 Wind from NNE
Vent: NNE 9 km/h
Température: 20°C
Point de Rosée: 8°C
Humidité: 46%
Barometre: 1003 hPa
Visibilité: greater than 10 km
2019/04/22 07:30 LFML 220730Z AUTO 03005KT 350V050 CAVOK 20/08 Q1003 TEMPO 27010G20KT
SOCA - Matury,(973)Guyane
Mise à jour: Mon, 22-Apr-2019 09:30 CEST
Overcast
Overcast
 Wind from calm
Vent: Calm
Température: 24°C
Point de Rosée: 23°C
Humidité: 94%
Barometre: 1010 hPa
Nuage: Overcast
Visibilité: 10 km
2019/04/22 07:30 SOCA 220730Z AUTO 00000KT 9999 SCT022 BKN028 OVC092 24/23 Q1010 TEMPO 4000 SHRA SCT015TCU
LFPM - Melun,(77)Seine-et-Marne
Mise à jour: Mon, 22-Apr-2019 09:30 CEST
Clear
Clear
 Wind from calm
Vent: Calm
Température: 15°C
Point de Rosée: 10°C
Humidité: 72%
Barometre: 1008 hPa
Visibilité: greater than 10 km
2019/04/22 07:30 LFPM 220730Z AUTO 00000KT CAVOK 15/10 Q1008
 
LFJL - Metz-Nancy-Lorraine,(57)Moselle
Mise à jour: Mon, 22-Apr-2019 09:30 CEST
Clear
Clear
 Wind from NE
Vent: NE 9 km/h
Température: 14°C
Point de Rosée: 5°C
Humidité: 55%
Barometre: 1009 hPa
Visibilité: greater than 10 km
2019/04/22 07:30 LFJL 220730Z AUTO 04005KT CAVOK 14/05 Q1009 NOSIG
LFBM - Mont-De-Marsan,(40)Landes
Mise à jour: Mon, 22-Apr-2019 09:30 CEST
Clear
Clear
 Wind from varies
Vent: varies 4 km/h
Température: 8°C
Point de Rosée: 7°C
Humidité: 93%
Barometre: 1004 hPa
Visibilité: greater than 10 km
2019/04/22 07:30 LFBM 220730Z AUTO VRB02KT CAVOK 08/07 Q1004 NOSIG
LFMT - Montpellier,(34)Hérault
Mise à jour: Mon, 22-Apr-2019 09:30 CEST
Clear
Clear
 Wind from NE
Vent: NE 13 km/h
Température: 18°C
Point de Rosée: 9°C
Humidité: 56%
Barometre: 1004 hPa
Visibilité: greater than 10 km
2019/04/22 07:30 LFMT 220730Z AUTO 04007KT CAVOK 18/09 Q1004 BECMG 22013KT
 
LFRU - Morlaix Ploujean,(29)Finistère
Mise à jour: Mon, 22-Apr-2019 09:30 CEST
Clear
Clear
 Wind from S
Vent: S 13 km/h
Température: 13°C
Point de Rosée: 9°C
Humidité: 77%
Barometre: 1005 hPa
Visibilité: greater than 10 km
2019/04/22 07:30 LFRU 220730Z AUTO 18007KT 150V210 CAVOK 13/09 Q1005
LFSN - Nancy,Essey,(54)Meurthe-et-Moselle
Mise à jour: Mon, 22-Apr-2019 09:30 CEST
Clear
Clear
 Wind from varies
Vent: varies 4 km/h
Température: 14°C
Point de Rosée: 5°C
Humidité: 55%
Barometre: 1009 hPa
Visibilité: greater than 10 km
2019/04/22 07:30 LFSN 220730Z AUTO VRB02KT CAVOK 14/05 Q1009
LFSO - Nancy , Ochey,(54)Meurthe-et-Moselle
Mise à jour: Mon, 22-Apr-2019 09:30 CEST
Clear
Clear
 Wind from varies
Vent: varies 4 km/h
Température: 15°C
Point de Rosée: 6°C
Humidité: 55%
Barometre: 1008 hPa
Visibilité: greater than 10 km
2019/04/22 07:30 LFSO 220730Z AUTO VRB02KT CAVOK 15/06 Q1008
 
LFRS - Nantes,(44)Loire-Atlantique
Mise à jour: Mon, 22-Apr-2019 09:30 CEST
Clear
Clear
 Wind from ENE
Vent: ENE 11 km/h
Température: 13°C
Point de Rosée: 9°C
Humidité: 77%
Barometre: 1006 hPa
Visibilité: greater than 10 km
2019/04/22 07:30 LFRS 220730Z AUTO 07006KT 050V110 CAVOK 13/09 Q1006 NOSIG
LFQG - Nevers,Fourchamb,(58)Nièvre
Mise à jour: Mon, 22-Apr-2019 09:30 CEST
Clear
Clear
 Wind from varies
Vent: varies 2 km/h
Température: 12°C
Point de Rosée: 10°C
Humidité: 88%
Barometre: 1007 hPa
Visibilité: greater than 10 km
2019/04/22 07:30 LFQG 220730Z AUTO VRB01KT CAVOK 12/10 Q1007
LFMN - Nice,(06)Alpes-Maritimes
Mise à jour: Mon, 22-Apr-2019 09:30 CEST
Clear
Clear
 Wind from E
Vent: E 22 km/h
Température: 19°C
Point de Rosée: 8°C
Humidité: 49%
Barometre: 1004 hPa
Visibilité: greater than 10 km
2019/04/22 07:30 LFMN 220730Z 08012KT CAVOK 19/08 Q1004 NOSIG
 
LFTW - Nimes, Garons,(30) Gard
Mise à jour: Mon, 22-Apr-2019 09:30 CEST
Clear
Clear
 Wind from NE
Vent: NE 9 km/h
Température: 17°C
Point de Rosée: 9°C
Humidité: 59%
Barometre: 1004 hPa
Visibilité: greater than 10 km
2019/04/22 07:30 LFTW 220730Z AUTO 04005KT 360V080 CAVOK 17/09 Q1004 NOSIG
LFMO - Orange,(84)Vaucluse
Mise à jour: Mon, 22-Apr-2019 09:30 CEST
Clear
Clear
 Wind from N
Vent: N 9 km/h
Température: 18°C
Point de Rosée: 9°C
Humidité: 56%
Barometre: 1004 hPa
Visibilité: greater than 10 km
2019/04/22 07:30 LFMO 220730Z AUTO 01005KT 340V040 CAVOK 18/09 Q1004 NOSIG
LFOJ - Orleans,(45)Loiret
Mise à jour: Mon, 22-Apr-2019 09:30 CEST
Clear
Clear
 Wind from varies
Vent: varies 4 km/h
Température: 16°C
Point de Rosée: 11°C
Humidité: 72%
Barometre: 1007 hPa
Visibilité: greater than 10 km
2019/04/22 07:30 LFOJ 220730Z AUTO VRB02KT CAVOK 16/11 Q1007 NOSIG
 
LFPB - Paris ,Le Bourget,(93)Seine-Saint-Denis
Mise à jour: Mon, 22-Apr-2019 09:30 CEST
Clear
Clear
 Wind from varies
Vent: varies 2 km/h
Température: 16°C
Point de Rosée: 9°C
Humidité: 63%
Barometre: 1007 hPa
Visibilité: greater than 10 km
2019/04/22 07:30 LFPB 220730Z AUTO VRB01KT CAVOK 16/09 Q1007 NOSIG
LFPG - Paris, Charles De Gaulle,(95)Val-d Oise
Mise à jour: Mon, 22-Apr-2019 09:30 CEST
Clear
Clear
 Wind from SSE
Vent: SSE 7 km/h
Température: 15°C
Point de Rosée: 9°C
Humidité: 68%
Barometre: 1008 hPa
Visibilité: greater than 10 km
2019/04/22 07:30 LFPG 220730Z 16004KT 090V210 CAVOK 15/09 Q1008 NOSIG
LFPO - Paris-Orly,(94)Val-de-Marne
Mise à jour: Mon, 22-Apr-2019 09:30 CEST
Clear
Clear
 Wind from varies
Vent: varies 6 km/h
Température: 15°C
Point de Rosée: 10°C
Humidité: 72%
Barometre: 1008 hPa
Visibilité: greater than 10 km
2019/04/22 07:30 LFPO 220730Z VRB03KT CAVOK 15/10 Q1008 NOSIG
 
LFBP - Pau,(64)Pyrénées-Atlantiques
Mise à jour: Mon, 22-Apr-2019 09:30 CEST
Partly Cloudy
Partly Cloudy
 Wind from calm
Vent: Calm
Température: 9°C
Point de Rosée: 9°C
Humidité: 100%
Barometre: 1004 hPa
Nuage: Partly Cloudy
Visibilité: 8 km
2019/04/22 07:30 LFBP 220730Z AUTO 00000KT 8000 NSC 09/09 Q1004 NOSIG
LFMP - Perpignan,(66)Pyrénées-Orientales
Mise à jour: Mon, 22-Apr-2019 09:30 CEST
Thunderstorm
Thunderstorm
 Wind from WSW
Vent: WSW 9 km/h
Température: 16°C
Point de Rosée: 9°C
Humidité: 63%
Barometre: 1005 hPa
Nuage: Thunderstorm
Visibilité: 10 km
2019/04/22 07:30 LFMP 220730Z AUTO 25005KT 220V280 9999 FEW050/// BKN094/// BKN110/// ///CB 16/09 Q1005 TEMPO SHRA BECMG 11010KT BKN100
LFBI - Poitiers,(86)Vienne
Mise à jour: Mon, 22-Apr-2019 09:30 CEST
Clear
Clear
 Wind from E
Vent: E 9 km/h
Température: 14°C
Point de Rosée: 9°C
Humidité: 72%
Barometre: 1007 hPa
Visibilité: greater than 10 km
2019/04/22 07:30 LFBI 220730Z AUTO 09005KT 040V130 CAVOK 14/09 Q1007 NOSIG
 
LFBP - Pont-Long-Uzein,(64)Pyrénées-Atlantiques
Mise à jour: Mon, 22-Apr-2019 09:30 CEST
Partly Cloudy
Partly Cloudy
 Wind from calm
Vent: Calm
Température: 9°C
Point de Rosée: 9°C
Humidité: 100%
Barometre: 1004 hPa
Nuage: Partly Cloudy
Visibilité: 8 km
2019/04/22 07:30 LFBP 220730Z AUTO 00000KT 8000 NSC 09/09 Q1004 NOSIG
TFFR - Point à Pitre,(971)Guadeloupe
Mise à jour: Mon, 22-Apr-2019 09:30 CEST
Mist, Mostly cloudy
Mist, Mostly cloudy
 Wind from NNE
Vent: NNE 17 km/h
Température: 22°C
Point de Rosée: 21°C
Humidité: 94%
Barometre: 1014 hPa
Nuage: Mostly Cloudy
Visibilité: 4 km
2019/04/22 07:30 TFFR 220730Z AUTO 03009KT 360V060 4400 BR SCT025 BKN033 BKN040 22/21 Q1014 TEMPO SHRA BKN018TCU
LFRQ - Quimper,(29)Finistère
Mise à jour: Mon, 22-Apr-2019 09:30 CEST
Fog
Fog
 Wind from varies
Vent: varies 4 km/h
Température: 12°C
Point de Rosée: 12°C
Humidité: 100%
Barometre: 1005 hPa
Visibilité: 0 km
2019/04/22 07:30 LFRQ 220730Z AUTO VRB02KT 0250 R28/0300N FG VV/// 12/12 Q1005 BECMG CAVOK
 
LFQA - Reims,Prunay,(51)Marne
Mise à jour: Mon, 22-Apr-2019 09:30 CEST
Clear
Clear
 Wind from ESE
Vent: ESE 11 km/h
Température: 14°C
Point de Rosée: 7°C
Humidité: 63%
Barometre: 1008 hPa
Visibilité: greater than 10 km
2019/04/22 07:30 LFQA 220730Z AUTO 12006KT CAVOK 14/07 Q1008
LFRN - Rennes,(35)Ille-et-Vilaine
Mise à jour: Mon, 22-Apr-2019 09:30 CEST
Clear
Clear
 Wind from SSE
Vent: SSE 7 km/h
Température: 13°C
Point de Rosée: 10°C
Humidité: 82%
Barometre: 1006 hPa
Visibilité: greater than 10 km
2019/04/22 07:30 LFRN 220730Z AUTO 15004KT CAVOK 13/10 Q1006 NOSIG
LFCR - Rodez,(12)Aveyron
Mise à jour: Mon, 22-Apr-2019 09:30 CEST
Clear
Clear
 Wind from ENE
Vent: ENE 6 km/h
Température: 11°C
Point de Rosée: 7°C
Humidité: 77%
Barometre: 1006 hPa
Visibilité: greater than 10 km
2019/04/22 07:30 LFCR 220730Z AUTO 06003KT CAVOK 11/07 Q1006 BECMG 12010KT
 
LFYR - Romorantin,(41)Loir-et-Cher
Mise à jour: Mon, 22-Apr-2019 09:30 CEST
Clear
Clear
 Wind from calm
Vent: Calm
Température: 12°C
Point de Rosée: 10°C
Humidité: 88%
Barometre: 1007 hPa
Visibilité: greater than 10 km
2019/04/22 07:30 LFYR 220730Z AUTO 00000KT CAVOK 12/10 Q1007
LFOP - Rouen,(76)Seine-Maritime
Mise à jour: Mon, 22-Apr-2019 09:30 CEST
Clear
Clear
 Wind from S
Vent: S 13 km/h
Température: 15°C
Point de Rosée: 7°C
Humidité: 59%
Barometre: 1007 hPa
Visibilité: greater than 10 km
2019/04/22 07:30 LFOP 220730Z AUTO 17007KT CAVOK 15/07 Q1007 NOSIG
LFRT - Saint-Brieuc,(22)Côtes-d Armor
Mise à jour: Mon, 22-Apr-2019 09:30 CEST
Clear
Clear
 Wind from SSW
Vent: SSW 9 km/h
Température: 15°C
Point de Rosée: 9°C
Humidité: 68%
Barometre: 1005 hPa
Visibilité: greater than 10 km
2019/04/22 07:30 LFRT 220730Z AUTO 21005KT 160V260 CAVOK 15/09 Q1005
 
FMEE - Saint-Denis,(974)Réunion
Mise à jour: Mon, 22-Apr-2019 09:30 CEST
Light rain, Thunderstorm
Light rain, Thunderstorm
 Wind from E
Vent: E 13 km/h
Température: 25°C
Point de Rosée: 24°C
Humidité: 94%
Barometre: 1013 hPa
Nuage: Thunderstorm
Visibilité: 10 km
2019/04/22 07:30 FMEE 220730Z AUTO 10007KT 9999 -RA SCT027/// SCT034/// BKN052/// ///TCU 25/24 Q1013 TEMPO VRB20G30KT 2000 SHRA SCT018CB
LFLN - Saint-Yan,(71)Saône-et-Loire
Mise à jour: Mon, 22-Apr-2019 09:30 CEST
Clear
Clear
 Wind from varies
Vent: varies 2 km/h
Température: 13°C
Point de Rosée: 10°C
Humidité: 82%
Barometre: 1007 hPa
Visibilité: greater than 10 km
2019/04/22 07:30 LFLN 220730Z AUTO VRB01KT CAVOK 13/10 Q1007 NOSIG
LFMY - Salon-de-Provence,(13)Bouches-du-Rhône
Mise à jour: Mon, 22-Apr-2019 09:30 CEST
Clear
Clear
 Wind from varies
Vent: varies 4 km/h
Température: 18°C
Point de Rosée: 8°C
Humidité: 52%
Barometre: 1004 hPa
Visibilité: greater than 10 km
2019/04/22 07:30 LFMY 220730Z AUTO VRB02KT CAVOK 18/08 Q1004
 
LFKS - Solenzara,(2A)Corse-du-Sud
Mise à jour: Mon, 22-Apr-2019 09:30 CEST
Clear
Clear
 Wind from W
Vent: W 15 km/h
Température: 19°C
Point de Rosée: 7°C
Humidité: 46%
Barometre: 1008 hPa
Visibilité: greater than 10 km
2019/04/22 07:30 LFKS 220730Z AUTO 27008KT 230V300 CAVOK 19/07 Q1008
LFSI - St-Dizier,(52)Haute-Marne
Mise à jour: Mon, 22-Apr-2019 09:30 CEST
Clear
Clear
 Wind from E
Vent: E 11 km/h
Température: 13°C
Point de Rosée: 5°C
Humidité: 59%
Barometre: 1008 hPa
Visibilité: greater than 10 km
2019/04/22 07:30 LFSI 220730Z AUTO 10006KT CAVOK 13/05 Q1008
LFMH - St-Etienne Boutheon,(42) Loire
Mise à jour: Mon, 22-Apr-2019 09:30 CEST
Clear
Clear
 Wind from varies
Vent: varies 2 km/h
Température: 11°C
Point de Rosée: 8°C
Humidité: 82%
Barometre: 1007 hPa
Visibilité: greater than 10 km
2019/04/22 07:30 LFMH 220730Z AUTO VRB01KT CAVOK 11/08 Q1007 NOSIG
 
LFVP - St-Pierre et Miquelon,(975)Outre-mer
Mise à jour: Mon, 22-Apr-2019 10:00 CEST
Fog
Fog
 Wind from W
Vent: W 13 km/h
Température: 4°C
Température au Vent: 1°C
Point de Rosée: 4°C
Humidité: 100%
Barometre: 1023 hPa
Visibilité: 1 km
2019/04/22 08:00 LFVP 220800Z 26007KT 230V290 0800 R26/1000N FG VV/// 04/04 Q1023 NOSIG
LFRZ - St-Nazaire,(44)Loire-Atlantique
Mise à jour: Mon, 22-Apr-2019 09:30 CEST
Clear
Clear
 Wind from ENE
Vent: ENE 6 km/h
Température: 12°C
Point de Rosée: 11°C
Humidité: 94%
Barometre: 1006 hPa
Visibilité: greater than 10 km
2019/04/22 07:30 LFRZ 220730Z AUTO 07003KT 040V100 CAVOK 12/11 Q1006 NOSIG
LFST - Strasbourg,(67)Bas-Rhin
Mise à jour: Mon, 22-Apr-2019 09:30 CEST
Clear
Clear
 Wind from N
Vent: N 9 km/h
Température: 14°C
Point de Rosée: 3°C
Humidité: 48%
Barometre: 1009 hPa
Visibilité: greater than 10 km
2019/04/22 07:30 LFST 220730Z AUTO 36005KT 340V040 CAVOK 14/03 Q1009 NOSIG
 
LFBT - Tarbes, Ossun,(65)Hautes-Pyrénées
Mise à jour: Mon, 22-Apr-2019 09:30 CEST
Clear
Clear
 Wind from varies
Vent: varies 4 km/h
Température: 11°C
Point de Rosée: 9°C
Humidité: 88%
Barometre: 1004 hPa
Visibilité: greater than 10 km
2019/04/22 07:30 LFBT 220730Z AUTO VRB02KT CAVOK 11/09 Q1004 NOSIG
LFBO - Toulouse,Blagnac,(31)Haute-Garonne
Mise à jour: Mon, 22-Apr-2019 09:30 CEST
Clear
Clear
 Wind from ENE
Vent: ENE 11 km/h
Température: 13°C
Point de Rosée: 7°C
Humidité: 67%
Barometre: 1004 hPa
Visibilité: greater than 10 km
2019/04/22 07:30 LFBO 220730Z AUTO 07006KT CAVOK 13/07 Q1004 BECMG 13014KT
LFOT - Tours,(37)Indre-et-Loire
Mise à jour: Mon, 22-Apr-2019 09:30 CEST
Clear
Clear
 Wind from E
Vent: E 6 km/h
Température: 14°C
Point de Rosée: 10°C
Humidité: 77%
Barometre: 1007 hPa
Visibilité: greater than 10 km
2019/04/22 07:30 LFOT 220730Z AUTO 08003KT CAVOK 14/10 Q1007 NOSIG
 
LFPN - Toussus Le Noble,(78)Yvelines
Mise à jour: Mon, 22-Apr-2019 09:30 CEST
Clear
Clear
 Wind from calm
Vent: Calm
Température: 16°C
Point de Rosée: 10°C
Humidité: 68%
Barometre: 1007 hPa
Visibilité: greater than 10 km
2019/04/22 07:30 LFPN 220730Z AUTO 00000KT CAVOK 16/10 Q1007 NOSIG
LFQB - Troyes,Barberey,(10)Aube
Mise à jour: Mon, 22-Apr-2019 09:30 CEST
Clear
Clear
 Wind from S
Vent: S 6 km/h
Température: 12°C
Point de Rosée: 10°C
Humidité: 88%
Barometre: 1008 hPa
Visibilité: greater than 10 km
2019/04/22 07:30 LFQB 220730Z AUTO 19003KT CAVOK 12/10 Q1008
LFLU - VALENCE Chabeuil,(26)Drôme
Mise à jour: Mon, 22-Apr-2019 09:30 CEST
Clear
Clear
 Wind from N
Vent: N 9 km/h
Température: 14°C
Point de Rosée: 8°C
Humidité: 67%
Barometre: 1005 hPa
Visibilité: greater than 10 km
2019/04/22 07:30 LFLU 220730Z AUTO 36005KT CAVOK 14/08 Q1005
 
LFRV - Vannes,Meucon,(56)Morbihan
Mise à jour: Mon, 22-Apr-2019 09:30 CEST
Clear
Clear
 Wind from ESE
Vent: ESE 6 km/h
Température: 13°C
Point de Rosée: 10°C
Humidité: 82%
Barometre: 1005 hPa
Visibilité: greater than 10 km
2019/04/22 07:30 LFRV 220730Z AUTO 12003KT CAVOK 13/10 Q1005
LFPV - Villacoublay,(78)Yvelines
Mise à jour: Mon, 22-Apr-2019 09:30 CEST
Clear
Clear
 Wind from W
Vent: W 6 km/h
Température: 15°C
Point de Rosée: 10°C
Humidité: 72%
Barometre: 1007 hPa
Visibilité: greater than 10 km
2019/04/22 07:30 LFPV 220730Z AUTO 27003KT 240V320 CAVOK 15/10 Q1007 NOSIG

Metar display script from Saratoga-Weather.org